sensor_id;sensor_type;location;lat;lon;timestamp;P1;P2;P0
71097;PMS7003;58754;47.622;-2.986;2023-06-10T00:01:58;4.50;4.50;4.00
71097;PMS7003;58754;47.622;-2.986;2023-06-10T00:04:25;5.25;4.25;3.25
71097;PMS7003;58754;47.622;-2.986;2023-06-10T00:06:51;4.50;4.50;4.00
71097;PMS7003;58754;47.622;-2.986;2023-06-10T00:09:19;5.00;5.00;4.00
71097;PMS7003;58754;47.622;-2.986;2023-06-10T00:11:46;6.00;5.00;4.00
71097;PMS7003;58754;47.622;-2.986;2023-06-10T00:14:13;4.25;4.25;4.00
71097;PMS7003;58754;47.622;-2.986;2023-06-10T00:16:38;6.00;5.00;4.00
71097;PMS7003;58754;47.622;-2.986;2023-06-10T00:19:05;6.25;4.00;3.00
71097;PMS7003;58754;47.622;-2.986;2023-06-10T00:21:32;4.00;4.00;3.50
71097;PMS7003;58754;47.622;-2.986;2023-06-10T00:24:08;4.00;4.00;4.00
71097;PMS7003;58754;47.622;-2.986;2023-06-10T00:26:39;5.00;3.75;3.00
71097;PMS7003;58754;47.622;-2.986;2023-06-10T00:29:06;6.50;4.00;4.00
71097;PMS7003;58754;47.622;-2.986;2023-06-10T00:31:33;5.50;4.00;4.00
71097;PMS7003;58754;47.622;-2.986;2023-06-10T00:33:59;6.00;5.00;3.75
71097;PMS7003;58754;47.622;-2.986;2023-06-10T00:36:25;5.25;5.25;4.75
71097;PMS7003;58754;47.622;-2.986;2023-06-10T00:38:51;6.75;4.25;3.75
71097;PMS7003;58754;47.622;-2.986;2023-06-10T00:41:17;4.75;4.75;4.00
71097;PMS7003;58754;47.622;-2.986;2023-06-10T00:43:43;6.00;4.75;4.00
71097;PMS7003;58754;47.622;-2.986;2023-06-10T00:46:09;5.25;4.00;3.75
71097;PMS7003;58754;47.622;-2.986;2023-06-10T00:48:37;5.00;4.00;4.00
71097;PMS7003;58754;47.622;-2.986;2023-06-10T00:51:04;5.00;3.25;3.00
71097;PMS7003;58754;47.622;-2.986;2023-06-10T00:53:30;4.00;4.00;4.00
71097;PMS7003;58754;47.622;-2.986;2023-06-10T00:55:57;3.25;3.25;3.25
71097;PMS7003;58754;47.622;-2.986;2023-06-10T00:58:24;4.50;4.50;4.00
71097;PMS7003;58754;47.622;-2.986;2023-06-10T01:00:51;5.50;4.25;3.50
71097;PMS7003;58754;47.622;-2.986;2023-06-10T01:03:17;3.25;3.25;3.25
71097;PMS7003;58754;47.622;-2.986;2023-06-10T01:05:43;5.50;4.00;3.00
71097;PMS7003;58754;47.622;-2.986;2023-06-10T01:11:34;4.75;4.75;4.25
71097;PMS7003;58754;47.622;-2.986;2023-06-10T01:14:06;3.00;3.00;3.00
71097;PMS7003;58754;47.622;-2.986;2023-06-10T01:16:34;4.00;4.00;3.00
71097;PMS7003;58754;47.622;-2.986;2023-06-10T01:19:02;4.00;4.00;4.00
71097;PMS7003;58754;47.622;-2.986;2023-06-10T01:21:28;5.75;4.75;4.50
71097;PMS7003;58754;47.622;-2.986;2023-06-10T01:23:56;3.75;3.75;3.00
71097;PMS7003;58754;47.622;-2.986;2023-06-10T01:26:25;4.75;4.50;4.25
71097;PMS7003;58754;47.622;-2.986;2023-06-10T01:29:11;2.75;2.75;2.75
71097;PMS7003;58754;47.622;-2.986;2023-06-10T01:31:48;4.50;4.00;3.25
71097;PMS7003;58754;47.622;-2.986;2023-06-10T01:34:18;3.50;3.50;3.25
71097;PMS7003;58754;47.622;-2.986;2023-06-10T01:36:47;4.00;4.00;3.00
71097;PMS7003;58754;47.622;-2.986;2023-06-10T01:39:17;5.00;5.00;4.50
71097;PMS7003;58754;47.622;-2.986;2023-06-10T01:41:45;5.00;3.25;3.25
71097;PMS7003;58754;47.622;-2.986;2023-06-10T01:44:17;4.50;3.00;2.00
71097;PMS7003;58754;47.622;-2.986;2023-06-10T01:46:46;5.00;3.75;3.75
71097;PMS7003;58754;47.622;-2.986;2023-06-10T01:49:12;5.00;3.00;3.00
71097;PMS7003;58754;47.622;-2.986;2023-06-10T01:51:38;5.50;4.00;3.00
71097;PMS7003;58754;47.622;-2.986;2023-06-10T01:54:04;4.00;3.25;3.00
71097;PMS7003;58754;47.622;-2.986;2023-06-10T01:56:31;4.50;4.50;4.00
71097;PMS7003;58754;47.622;-2.986;2023-06-10T01:58:57;3.25;3.00;3.00
71097;PMS7003;58754;47.622;-2.986;2023-06-10T02:01:24;5.00;4.00;4.00
71097;PMS7003;58754;47.622;-2.986;2023-06-10T02:03:51;5.25;4.00;4.00
71097;PMS7003;58754;47.622;-2.986;2023-06-10T02:06:17;3.00;3.00;2.50
71097;PMS7003;58754;47.622;-2.986;2023-06-10T02:08:42;4.00;4.00;3.00
71097;PMS7003;58754;47.622;-2.986;2023-06-10T02:11:08;3.00;3.00;2.75
71097;PMS7003;58754;47.622;-2.986;2023-06-10T02:13:34;3.00;3.00;2.25
71097;PMS7003;58754;47.622;-2.986;2023-06-10T02:16:00;4.00;3.00;3.00
71097;PMS7003;58754;47.622;-2.986;2023-06-10T02:18:26;4.00;4.00;3.25
71097;PMS7003;58754;47.622;-2.986;2023-06-10T02:20:53;2.50;2.50;2.25
71097;PMS7003;58754;47.622;-2.986;2023-06-10T02:23:19;4.75;3.75;3.00
71097;PMS7003;58754;47.622;-2.986;2023-06-10T02:25:45;5.00;3.00;3.00
71097;PMS7003;58754;47.622;-2.986;2023-06-10T02:28:12;3.00;3.00;3.00
71097;PMS7003;58754;47.622;-2.986;2023-06-10T02:30:39;5.00;3.75;3.00
71097;PMS7003;58754;47.622;-2.986;2023-06-10T02:33:06;4.50;3.00;3.00
71097;PMS7003;58754;47.622;-2.986;2023-06-10T02:35:35;3.00;3.00;3.00
71097;PMS7003;58754;47.622;-2.986;2023-06-10T02:38:02;5.00;4.25;3.50
71097;PMS7003;58754;47.622;-2.986;2023-06-10T02:40:27;3.50;3.25;2.50
71097;PMS7003;58754;47.622;-2.986;2023-06-10T02:42:54;3.75;3.75;3.00
71097;PMS7003;58754;47.622;-2.986;2023-06-10T02:45:19;3.25;3.25;3.00
71097;PMS7003;58754;47.622;-2.986;2023-06-10T02:47:45;3.25;3.25;3.00
71097;PMS7003;58754;47.622;-2.986;2023-06-10T02:50:11;3.00;3.00;3.00
71097;PMS7003;58754;47.622;-2.986;2023-06-10T02:52:37;4.50;4.00;3.00
71097;PMS7003;58754;47.622;-2.986;2023-06-10T02:55:02;5.00;4.00;3.00
71097;PMS7003;58754;47.622;-2.986;2023-06-10T02:57:28;4.75;4.50;4.00
71097;PMS7003;58754;47.622;-2.986;2023-06-10T02:59:54;5.50;5.50;3.00
71097;PMS7003;58754;47.622;-2.986;2023-06-10T03:02:20;5.50;4.00;3.00
71097;PMS7003;58754;47.622;-2.986;2023-06-10T03:04:47;5.50;3.00;3.00
71097;PMS7003;58754;47.622;-2.986;2023-06-10T03:07:12;2.00;2.00;2.00
71097;PMS7003;58754;47.622;-2.986;2023-06-10T03:09:39;2.75;2.75;2.75
71097;PMS7003;58754;47.622;-2.986;2023-06-10T03:12:05;4.25;2.75;2.25
71097;PMS7003;58754;47.622;-2.986;2023-06-10T03:14:31;2.75;2.75;2.00
71097;PMS7003;58754;47.622;-2.986;2023-06-10T03:16:57;4.00;4.00;3.50
71097;PMS7003;58754;47.622;-2.986;2023-06-10T03:19:23;4.00;4.00;3.25
71097;PMS7003;58754;47.622;-2.986;2023-06-10T03:22:07;3.00;3.00;2.00
71097;PMS7003;58754;47.622;-2.986;2023-06-10T03:24:37;6.50;3.50;3.00
71097;PMS7003;58754;47.622;-2.986;2023-06-10T03:27:08;4.00;4.00;3.00
71097;PMS7003;58754;47.622;-2.986;2023-06-10T03:29:35;5.00;5.00;4.00
71097;PMS7003;58754;47.622;-2.986;2023-06-10T03:32:01;3.25;2.00;2.00
71097;PMS7003;58754;47.622;-2.986;2023-06-10T03:34:27;5.00;3.50;3.00
71097;PMS7003;58754;47.622;-2.986;2023-06-10T03:36:53;7.50;5.00;3.75
71097;PMS7003;58754;47.622;-2.986;2023-06-10T03:39:18;5.50;4.75;4.00
71097;PMS7003;58754;47.622;-2.986;2023-06-10T03:41:44;7.00;5.25;4.00
71097;PMS7003;58754;47.622;-2.986;2023-06-10T03:44:10;4.00;4.00;3.50
71097;PMS7003;58754;47.622;-2.986;2023-06-10T03:46:36;6.00;5.25;4.00
71097;PMS7003;58754;47.622;-2.986;2023-06-10T03:49:02;6.75;5.00;4.00
71097;PMS7003;58754;47.622;-2.986;2023-06-10T03:51:28;6.75;5.00;4.00
71097;PMS7003;58754;47.622;-2.986;2023-06-10T03:53:54;4.00;4.00;4.00
71097;PMS7003;58754;47.622;-2.986;2023-06-10T03:56:20;4.00;4.00;3.00
71097;PMS7003;58754;47.622;-2.986;2023-06-10T03:58:46;5.00;5.00;4.00
71097;PMS7003;58754;47.622;-2.986;2023-06-10T04:01:11;4.00;4.00;3.00
71097;PMS7003;58754;47.622;-2.986;2023-06-10T04:03:38;5.25;4.00;3.00
71097;PMS7003;58754;47.622;-2.986;2023-06-10T04:06:06;6.00;4.00;3.00
71097;PMS7003;58754;47.622;-2.986;2023-06-10T04:08:32;5.50;4.00;3.75
71097;PMS7003;58754;47.622;-2.986;2023-06-10T04:10:58;4.25;3.25;3.00
71097;PMS7003;58754;47.622;-2.986;2023-06-10T04:13:24;4.25;4.00;3.00
71097;PMS7003;58754;47.622;-2.986;2023-06-10T04:15:50;4.75;4.00;3.00
71097;PMS7003;58754;47.622;-2.986;2023-06-10T04:18:16;3.25;3.00;2.25
71097;PMS7003;58754;47.622;-2.986;2023-06-10T04:20:42;6.75;5.00;4.25
71097;PMS7003;58754;47.622;-2.986;2023-06-10T04:23:09;4.75;4.25;3.25
71097;PMS7003;58754;47.622;-2.986;2023-06-10T04:25:35;6.50;4.75;3.25
71097;PMS7003;58754;47.622;-2.986;2023-06-10T04:28:00;5.75;4.50;4.00
71097;PMS7003;58754;47.622;-2.986;2023-06-10T04:30:26;4.00;4.00;4.00
71097;PMS7003;58754;47.622;-2.986;2023-06-10T04:32:52;5.75;5.00;4.00
71097;PMS7003;58754;47.622;-2.986;2023-06-10T04:35:18;4.00;3.75;3.00
71097;PMS7003;58754;47.622;-2.986;2023-06-10T04:37:43;8.00;4.75;3.25
71097;PMS7003;58754;47.622;-2.986;2023-06-10T04:40:09;4.75;4.75;3.75
71097;PMS7003;58754;47.622;-2.986;2023-06-10T04:42:35;6.75;5.50;4.25
71097;PMS7003;58754;47.622;-2.986;2023-06-10T04:45:01;5.75;4.25;4.00
71097;PMS7003;58754;47.622;-2.986;2023-06-10T04:47:29;6.00;5.25;4.50
71097;PMS7003;58754;47.622;-2.986;2023-06-10T04:49:58;5.75;4.00;3.25
71097;PMS7003;58754;47.622;-2.986;2023-06-10T04:52:24;7.50;5.75;4.75
71097;PMS7003;58754;47.622;-2.986;2023-06-10T04:54:50;6.25;5.00;4.00
71097;PMS7003;58754;47.622;-2.986;2023-06-10T04:57:16;4.75;4.75;4.00
71097;PMS7003;58754;47.622;-2.986;2023-06-10T04:59:42;6.75;4.25;4.00
71097;PMS7003;58754;47.622;-2.986;2023-06-10T05:02:07;4.00;4.00;3.00
71097;PMS7003;58754;47.622;-2.986;2023-06-10T05:04:33;5.25;5.25;4.00
71097;PMS7003;58754;47.622;-2.986;2023-06-10T05:06:59;4.50;4.50;3.50
71097;PMS7003;58754;47.622;-2.986;2023-06-10T05:09:25;7.75;5.50;4.00
71097;PMS7003;58754;47.622;-2.986;2023-06-10T05:11:51;6.25;5.00;4.25
71097;PMS7003;58754;47.622;-2.986;2023-06-10T05:14:18;7.25;6.00;4.25
71097;PMS7003;58754;47.622;-2.986;2023-06-10T05:16:46;6.00;5.75;5.00
71097;PMS7003;58754;47.622;-2.986;2023-06-10T05:19:12;6.25;4.25;4.00
71097;PMS7003;58754;47.622;-2.986;2023-06-10T05:21:38;4.75;4.75;4.00
71097;PMS7003;58754;47.622;-2.986;2023-06-10T05:24:04;6.00;5.50;4.00
71097;PMS7003;58754;47.622;-2.986;2023-06-10T05:26:30;4.00;4.00;3.00
71097;PMS7003;58754;47.622;-2.986;2023-06-10T05:28:58;5.00;5.00;3.50
71097;PMS7003;58754;47.622;-2.986;2023-06-10T05:31:23;5.75;5.75;5.00
71097;PMS7003;58754;47.622;-2.986;2023-06-10T05:33:49;6.25;5.25;4.25
71097;PMS7003;58754;47.622;-2.986;2023-06-10T05:36:15;4.25;4.25;3.75
71097;PMS7003;58754;47.622;-2.986;2023-06-10T05:38:41;5.50;4.00;3.50
71097;PMS7003;58754;47.622;-2.986;2023-06-10T05:41:06;5.00;5.00;4.25
71097;PMS7003;58754;47.622;-2.986;2023-06-10T05:43:32;5.00;4.50;3.75
71097;PMS7003;58754;47.622;-2.986;2023-06-10T05:45:58;7.00;5.75;5.00
71097;PMS7003;58754;47.622;-2.986;2023-06-10T05:48:24;4.00;3.00;3.00
71097;PMS7003;58754;47.622;-2.986;2023-06-10T05:50:49;3.00;3.00;2.75
71097;PMS7003;58754;47.622;-2.986;2023-06-10T05:53:15;5.75;3.00;2.25
71097;PMS7003;58754;47.622;-2.986;2023-06-10T05:55:42;6.00;4.50;4.00
71097;PMS7003;58754;47.622;-2.986;2023-06-10T05:58:08;5.25;5.25;5.00
71097;PMS7003;58754;47.622;-2.986;2023-06-10T06:00:34;4.00;4.00;3.00
71097;PMS7003;58754;47.622;-2.986;2023-06-10T06:03:00;4.75;4.75;4.00
71097;PMS7003;58754;47.622;-2.986;2023-06-10T06:05:26;7.00;5.50;4.75
71097;PMS7003;58754;47.622;-2.986;2023-06-10T06:07:51;7.00;5.75;4.00
71097;PMS7003;58754;47.622;-2.986;2023-06-10T06:10:17;6.00;6.00;5.00
71097;PMS7003;58754;47.622;-2.986;2023-06-10T06:12:44;7.00;6.50;4.00
71097;PMS7003;58754;47.622;-2.986;2023-06-10T06:15:10;6.25;4.00;3.75
71097;PMS7003;58754;47.622;-2.986;2023-06-10T06:17:36;5.25;4.25;4.00
71097;PMS7003;58754;47.622;-2.986;2023-06-10T06:20:02;4.75;4.25;3.50
71097;PMS7003;58754;47.622;-2.986;2023-06-10T06:22:28;6.00;6.00;4.75
71097;PMS7003;58754;47.622;-2.986;2023-06-10T06:24:54;1.25;1.25;0.25
71097;PMS7003;58754;47.622;-2.986;2023-06-10T06:27:20;3.75;3.75;3.50
71097;PMS7003;58754;47.622;-2.986;2023-06-10T06:29:46;7.00;5.25;4.75
71097;PMS7003;58754;47.622;-2.986;2023-06-10T06:32:12;5.25;5.25;4.00
71097;PMS7003;58754;47.622;-2.986;2023-06-10T06:34:37;5.00;5.00;4.00
71097;PMS7003;58754;47.622;-2.986;2023-06-10T06:37:03;6.25;6.00;4.75
71097;PMS7003;58754;47.622;-2.986;2023-06-10T06:39:29;4.50;4.50;3.25
71097;PMS7003;58754;47.622;-2.986;2023-06-10T06:41:55;5.25;5.25;3.75
71097;PMS7003;58754;47.622;-2.986;2023-06-10T06:44:21;3.75;3.75;3.00
71097;PMS7003;58754;47.622;-2.986;2023-06-10T06:46:46;6.00;6.00;4.25
71097;PMS7003;58754;47.622;-2.986;2023-06-10T06:49:12;5.75;5.75;4.50
71097;PMS7003;58754;47.622;-2.986;2023-06-10T06:51:38;8.50;4.50;3.25
71097;PMS7003;58754;47.622;-2.986;2023-06-10T06:54:03;9.00;6.75;4.00
71097;PMS7003;58754;47.622;-2.986;2023-06-10T06:56:30;4.00;4.00;3.50
71097;PMS7003;58754;47.622;-2.986;2023-06-10T06:58:56;4.00;4.00;3.50
71097;PMS7003;58754;47.622;-2.986;2023-06-10T07:01:22;7.00;5.00;4.00
71097;PMS7003;58754;47.622;-2.986;2023-06-10T07:03:48;5.00;3.00;3.00
71097;PMS7003;58754;47.622;-2.986;2023-06-10T07:06:13;6.50;4.00;3.25
71097;PMS7003;58754;47.622;-2.986;2023-06-10T07:08:39;5.75;4.50;4.25
71097;PMS7003;58754;47.622;-2.986;2023-06-10T07:11:05;3.50;3.50;3.25
71097;PMS7003;58754;47.622;-2.986;2023-06-10T07:13:31;4.50;4.50;3.50
71097;PMS7003;58754;47.622;-2.986;2023-06-10T07:15:56;6.00;4.00;4.00
71097;PMS7003;58754;47.622;-2.986;2023-06-10T07:18:22;5.50;4.00;3.00
71097;PMS7003;58754;47.622;-2.986;2023-06-10T07:20:48;7.50;5.25;4.25
71097;PMS7003;58754;47.622;-2.986;2023-06-10T07:23:13;2.75;2.75;2.25
71097;PMS7003;58754;47.622;-2.986;2023-06-10T07:25:40;7.50;4.50;3.25
71097;PMS7003;58754;47.622;-2.986;2023-06-10T07:28:06;4.00;2.75;2.25
71097;PMS7003;58754;47.622;-2.986;2023-06-10T07:30:32;6.00;5.00;3.00
71097;PMS7003;58754;47.622;-2.986;2023-06-10T07:32:58;3.00;3.00;2.75
71097;PMS7003;58754;47.622;-2.986;2023-06-10T07:35:23;6.25;4.25;3.00
71097;PMS7003;58754;47.622;-2.986;2023-06-10T07:37:49;3.00;2.50;2.00
71097;PMS7003;58754;47.622;-2.986;2023-06-10T07:40:15;7.25;5.00;4.00
71097;PMS7003;58754;47.622;-2.986;2023-06-10T07:42:41;4.00;4.00;3.00
71097;PMS7003;58754;47.622;-2.986;2023-06-10T07:45:08;5.50;4.00;3.25
71097;PMS7003;58754;47.622;-2.986;2023-06-10T07:47:34;6.50;5.75;4.00
71097;PMS7003;58754;47.622;-2.986;2023-06-10T07:50:00;3.25;3.25;3.00
71097;PMS7003;58754;47.622;-2.986;2023-06-10T07:52:26;5.00;4.00;3.00
71097;PMS7003;58754;47.622;-2.986;2023-06-10T07:54:53;4.50;3.25;3.00
71097;PMS7003;58754;47.622;-2.986;2023-06-10T07:57:19;4.50;4.25;4.00
71097;PMS7003;58754;47.622;-2.986;2023-06-10T07:59:45;4.00;4.00;3.25
71097;PMS7003;58754;47.622;-2.986;2023-06-10T08:02:10;6.00;4.00;3.75
71097;PMS7003;58754;47.622;-2.986;2023-06-10T08:04:36;4.25;3.00;3.00
71097;PMS7003;58754;47.622;-2.986;2023-06-10T08:07:02;3.25;3.25;3.00
71097;PMS7003;58754;47.622;-2.986;2023-06-10T08:09:28;4.50;3.00;2.50
71097;PMS7003;58754;47.622;-2.986;2023-06-10T08:11:54;5.00;4.00;3.50
71097;PMS7003;58754;47.622;-2.986;2023-06-10T08:14:20;4.50;4.50;4.00
71097;PMS7003;58754;47.622;-2.986;2023-06-10T08:16:46;4.25;4.25;3.25
71097;PMS7003;58754;47.622;-2.986;2023-06-10T08:19:12;4.00;4.00;3.00
71097;PMS7003;58754;47.622;-2.986;2023-06-10T08:21:38;4.00;4.00;3.75
71097;PMS7003;58754;47.622;-2.986;2023-06-10T08:24:05;5.00;3.00;2.75
71097;PMS7003;58754;47.622;-2.986;2023-06-10T08:26:31;4.00;3.00;2.75
71097;PMS7003;58754;47.622;-2.986;2023-06-10T08:28:57;4.25;3.50;3.00
71097;PMS7003;58754;47.622;-2.986;2023-06-10T08:31:23;4.75;3.25;3.00
71097;PMS7003;58754;47.622;-2.986;2023-06-10T08:33:49;4.75;3.75;3.00
71097;PMS7003;58754;47.622;-2.986;2023-06-10T08:36:15;2.25;2.25;2.00
71097;PMS7003;58754;47.622;-2.986;2023-06-10T08:38:40;2.25;2.25;2.00
71097;PMS7003;58754;47.622;-2.986;2023-06-10T08:41:06;3.25;3.25;3.00
71097;PMS7003;58754;47.622;-2.986;2023-06-10T08:43:46;4.50;3.00;3.00
71097;PMS7003;58754;47.622;-2.986;2023-06-10T08:46:20;4.00;3.25;3.00
71097;PMS7003;58754;47.622;-2.986;2023-06-10T08:48:46;4.00;3.75;3.00
71097;PMS7003;58754;47.622;-2.986;2023-06-10T08:51:17;5.25;3.25;3.00
71097;PMS7003;58754;47.622;-2.986;2023-06-10T08:53:48;3.00;3.00;2.00
71097;PMS7003;58754;47.622;-2.986;2023-06-10T08:56:19;4.00;4.00;3.00
71097;PMS7003;58754;47.622;-2.986;2023-06-10T08:58:47;5.75;2.75;2.25
71097;PMS7003;58754;47.622;-2.986;2023-06-10T09:01:13;7.00;3.50;3.00
71097;PMS7003;58754;47.622;-2.986;2023-06-10T09:03:41;3.75;3.75;2.75
71097;PMS7003;58754;47.622;-2.986;2023-06-10T09:06:08;5.25;3.25;3.00
71097;PMS7003;58754;47.622;-2.986;2023-06-10T09:08:35;3.00;3.00;3.00
71097;PMS7003;58754;47.622;-2.986;2023-06-10T09:11:00;3.50;3.50;3.00
71097;PMS7003;58754;47.622;-2.986;2023-06-10T09:13:26;2.50;2.50;2.00
71097;PMS7003;58754;47.622;-2.986;2023-06-10T09:15:52;3.00;3.00;2.25
71097;PMS7003;58754;47.622;-2.986;2023-06-10T09:18:17;7.75;5.00;4.00
71097;PMS7003;58754;47.622;-2.986;2023-06-10T09:20:43;3.75;3.50;3.00
71097;PMS7003;58754;47.622;-2.986;2023-06-10T09:23:10;2.50;2.00;2.00
71097;PMS7003;58754;47.622;-2.986;2023-06-10T09:25:36;5.25;3.25;2.75
71097;PMS7003;58754;47.622;-2.986;2023-06-10T09:28:03;3.00;3.00;2.00
71097;PMS7003;58754;47.622;-2.986;2023-06-10T09:30:30;3.00;3.00;3.00
71097;PMS7003;58754;47.622;-2.986;2023-06-10T09:33:01;5.50;2.50;2.00
71097;PMS7003;58754;47.622;-2.986;2023-06-10T09:35:34;4.00;3.50;2.75
71097;PMS7003;58754;47.622;-2.986;2023-06-10T09:38:00;4.25;3.25;3.00
71097;PMS7003;58754;47.622;-2.986;2023-06-10T09:40:27;3.25;3.00;3.00
71097;PMS7003;58754;47.622;-2.986;2023-06-10T09:42:54;3.00;3.00;2.25
71097;PMS7003;58754;47.622;-2.986;2023-06-10T09:45:21;3.25;3.25;2.50
71097;PMS7003;58754;47.622;-2.986;2023-06-10T09:47:51;3.25;1.75;1.50
71097;PMS7003;58754;47.622;-2.986;2023-06-10T09:50:20;3.25;2.75;2.00
71097;PMS7003;58754;47.622;-2.986;2023-06-10T09:52:47;5.25;3.00;3.00
71097;PMS7003;58754;47.622;-2.986;2023-06-10T09:55:13;3.50;2.75;2.00
71097;PMS7003;58754;47.622;-2.986;2023-06-10T09:57:39;5.00;2.00;2.00
71097;PMS7003;58754;47.622;-2.986;2023-06-10T10:00:09;6.00;3.75;3.50
71097;PMS7003;58754;47.622;-2.986;2023-06-10T10:02:49;2.25;2.25;2.00
71097;PMS7003;58754;47.622;-2.986;2023-06-10T10:05:16;2.50;1.50;1.50
71097;PMS7003;58754;47.622;-2.986;2023-06-10T10:07:43;2.00;2.00;2.00
71097;PMS7003;58754;47.622;-2.986;2023-06-10T10:10:10;2.50;2.50;2.00
71097;PMS7003;58754;47.622;-2.986;2023-06-10T10:12:40;3.50;3.50;2.00
71097;PMS7003;58754;47.622;-2.986;2023-06-10T10:15:07;5.00;3.50;2.25
71097;PMS7003;58754;47.622;-2.986;2023-06-10T10:17:36;1.25;1.25;1.00
71097;PMS7003;58754;47.622;-2.986;2023-06-10T10:20:05;3.75;3.00;3.00
71097;PMS7003;58754;47.622;-2.986;2023-06-10T10:22:40;3.00;3.00;2.00
71097;PMS7003;58754;47.622;-2.986;2023-06-10T10:25:12;4.50;2.25;1.75
71097;PMS7003;58754;47.622;-2.986;2023-06-10T10:28:14;3.00;3.00;2.00
71097;PMS7003;58754;47.622;-2.986;2023-06-10T10:30:37;2.75;2.75;2.00
71097;PMS7003;58754;47.622;-2.986;2023-06-10T10:36:22;2.75;2.75;2.50
71097;PMS7003;58754;47.622;-2.986;2023-06-10T10:38:48;3.00;2.25;2.00
71097;PMS7003;58754;47.622;-2.986;2023-06-10T10:41:15;3.00;2.75;2.50
71097;PMS7003;58754;47.622;-2.986;2023-06-10T10:43:42;5.50;3.00;2.25
71097;PMS7003;58754;47.622;-2.986;2023-06-10T10:46:13;4.00;3.00;2.00
71097;PMS7003;58754;47.622;-2.986;2023-06-10T10:48:41;4.00;2.00;2.00
71097;PMS7003;58754;47.622;-2.986;2023-06-10T10:51:08;2.00;2.00;2.00
71097;PMS7003;58754;47.622;-2.986;2023-06-10T10:53:36;4.00;2.25;2.00
71097;PMS7003;58754;47.622;-2.986;2023-06-10T10:56:07;2.00;2.00;2.00
71097;PMS7003;58754;47.622;-2.986;2023-06-10T10:58:37;3.00;3.00;2.00
71097;PMS7003;58754;47.622;-2.986;2023-06-10T11:01:13;4.25;3.00;2.75
71097;PMS7003;58754;47.622;-2.986;2023-06-10T11:03:43;3.00;3.00;3.00
71097;PMS7003;58754;47.622;-2.986;2023-06-10T11:06:13;3.25;3.00;2.00
71097;PMS7003;58754;47.622;-2.986;2023-06-10T11:11:23;1.00;1.00;1.00
71097;PMS7003;58754;47.622;-2.986;2023-06-10T11:14:04;2.00;2.00;1.75
71097;PMS7003;58754;47.622;-2.986;2023-06-10T11:16:43;2.25;2.00;1.00
71097;PMS7003;58754;47.622;-2.986;2023-06-10T11:19:09;2.00;2.00;2.00
71097;PMS7003;58754;47.622;-2.986;2023-06-10T11:24:26;2.25;2.00;1.25
71097;PMS7003;58754;47.622;-2.986;2023-06-10T11:26:52;1.00;1.00;1.00
71097;PMS7003;58754;47.622;-2.986;2023-06-10T11:29:18;3.00;1.50;1.00
71097;PMS7003;58754;47.622;-2.986;2023-06-10T11:31:46;3.00;2.00;1.75
71097;PMS7003;58754;47.622;-2.986;2023-06-10T11:34:21;2.00;2.00;1.75
71097;PMS7003;58754;47.622;-2.986;2023-06-10T11:36:52;2.00;2.00;2.00
71097;PMS7003;58754;47.622;-2.986;2023-06-10T11:39:19;1.00;1.00;1.00
71097;PMS7003;58754;47.622;-2.986;2023-06-10T11:41:45;2.50;1.75;1.25
71097;PMS7003;58754;47.622;-2.986;2023-06-10T11:44:12;3.00;3.00;2.50
71097;PMS7003;58754;47.622;-2.986;2023-06-10T11:46:39;2.25;1.50;1.25
71097;PMS7003;58754;47.622;-2.986;2023-06-10T11:49:05;2.25;2.25;2.00
71097;PMS7003;58754;47.622;-2.986;2023-06-10T11:51:32;2.75;2.00;1.25
71097;PMS7003;58754;47.622;-2.986;2023-06-10T11:54:14;1.50;1.50;1.50
71097;PMS7003;58754;47.622;-2.986;2023-06-10T11:56:41;1.25;1.25;1.25
71097;PMS7003;58754;47.622;-2.986;2023-06-10T11:59:07;3.25;1.00;1.00
71097;PMS7003;58754;47.622;-2.986;2023-06-10T12:01:33;3.00;2.00;1.50
71097;PMS7003;58754;47.622;-2.986;2023-06-10T12:04:05;2.00;2.00;1.00
71097;PMS7003;58754;47.622;-2.986;2023-06-10T12:06:40;2.00;2.00;2.00
71097;PMS7003;58754;47.622;-2.986;2023-06-10T12:09:14;2.25;2.00;1.00
71097;PMS7003;58754;47.622;-2.986;2023-06-10T12:11:43;2.75;2.00;2.00
71097;PMS7003;58754;47.622;-2.986;2023-06-10T12:14:10;2.50;2.00;1.50
71097;PMS7003;58754;47.622;-2.986;2023-06-10T12:16:36;2.00;2.00;2.00
71097;PMS7003;58754;47.622;-2.986;2023-06-10T12:19:02;1.00;1.00;1.00
71097;PMS7003;58754;47.622;-2.986;2023-06-10T12:21:29;3.00;1.00;1.00
71097;PMS7003;58754;47.622;-2.986;2023-06-10T12:24:14;2.25;1.75;1.25
71097;PMS7003;58754;47.622;-2.986;2023-06-10T12:26:42;2.00;2.00;1.75
71097;PMS7003;58754;47.622;-2.986;2023-06-10T12:29:18;4.00;2.00;2.00
71097;PMS7003;58754;47.622;-2.986;2023-06-10T12:34:33;2.00;2.00;1.50
71097;PMS7003;58754;47.622;-2.986;2023-06-10T12:37:04;2.25;2.25;1.50
71097;PMS7003;58754;47.622;-2.986;2023-06-10T12:39:32;3.00;2.00;2.00
71097;PMS7003;58754;47.622;-2.986;2023-06-10T12:41:59;3.50;2.50;1.00
71097;PMS7003;58754;47.622;-2.986;2023-06-10T12:44:35;1.25;1.25;1.25
71097;PMS7003;58754;47.622;-2.986;2023-06-10T12:47:10;2.00;2.00;2.00
71097;PMS7003;58754;47.622;-2.986;2023-06-10T12:49:40;1.75;1.75;1.25
71097;PMS7003;58754;47.622;-2.986;2023-06-10T12:52:05;0.00;0.00;0.00
71097;PMS7003;58754;47.622;-2.986;2023-06-10T12:54:32;3.25;2.00;2.00
71097;PMS7003;58754;47.622;-2.986;2023-06-10T12:56:58;2.25;1.50;1.50
71097;PMS7003;58754;47.622;-2.986;2023-06-10T12:59:24;4.00;2.75;2.50
71097;PMS7003;58754;47.622;-2.986;2023-06-10T13:01:50;1.50;1.50;1.00
71097;PMS7003;58754;47.622;-2.986;2023-06-10T13:04:17;2.50;2.50;2.25
71097;PMS7003;58754;47.622;-2.986;2023-06-10T13:06:43;2.00;1.50;1.25
71097;PMS7003;58754;47.622;-2.986;2023-06-10T13:09:09;4.50;2.25;2.00
71097;PMS7003;58754;47.622;-2.986;2023-06-10T13:11:35;2.00;2.00;1.00
71097;PMS7003;58754;47.622;-2.986;2023-06-10T13:14:01;2.00;2.00;1.75
71097;PMS7003;58754;47.622;-2.986;2023-06-10T13:16:29;2.00;2.00;2.00
71097;PMS7003;58754;47.622;-2.986;2023-06-10T13:18:55;2.00;2.00;2.00
71097;PMS7003;58754;47.622;-2.986;2023-06-10T13:21:21;1.00;1.00;1.00
71097;PMS7003;58754;47.622;-2.986;2023-06-10T13:23:47;3.50;2.00;2.00
71097;PMS7003;58754;47.622;-2.986;2023-06-10T13:26:13;2.00;2.00;2.00
71097;PMS7003;58754;47.622;-2.986;2023-06-10T13:28:41;2.00;2.00;2.00
71097;PMS7003;58754;47.622;-2.986;2023-06-10T13:31:08;1.25;1.00;1.00
71097;PMS7003;58754;47.622;-2.986;2023-06-10T13:33:33;2.00;1.75;1.75
71097;PMS7003;58754;47.622;-2.986;2023-06-10T13:35:59;0.75;0.75;0.25
71097;PMS7003;58754;47.622;-2.986;2023-06-10T13:38:25;2.25;1.25;1.00
71097;PMS7003;58754;47.622;-2.986;2023-06-10T13:40:50;3.00;2.00;2.00
71097;PMS7003;58754;47.622;-2.986;2023-06-10T13:43:16;1.75;1.25;1.00
71097;PMS7003;58754;47.622;-2.986;2023-06-10T13:45:42;1.00;1.00;1.00
71097;PMS7003;58754;47.622;-2.986;2023-06-10T13:48:08;2.00;2.00;1.25
71097;PMS7003;58754;47.622;-2.986;2023-06-10T13:50:34;1.50;1.50;1.50
71097;PMS7003;58754;47.622;-2.986;2023-06-10T13:52:59;2.25;2.00;1.00
71097;PMS7003;58754;47.622;-2.986;2023-06-10T13:55:25;3.00;1.00;1.00
71097;PMS7003;58754;47.622;-2.986;2023-06-10T13:57:51;1.00;1.00;1.00
71097;PMS7003;58754;47.622;-2.986;2023-06-10T14:00:17;2.00;2.00;1.75
71097;PMS7003;58754;47.622;-2.986;2023-06-10T14:02:43;1.50;0.50;0.25
71097;PMS7003;58754;47.622;-2.986;2023-06-10T14:05:09;2.00;2.00;1.50
71097;PMS7003;58754;47.622;-2.986;2023-06-10T14:07:35;2.00;2.00;1.00
71097;PMS7003;58754;47.622;-2.986;2023-06-10T14:10:02;1.00;1.00;1.00
71097;PMS7003;58754;47.622;-2.986;2023-06-10T14:12:28;3.00;1.00;1.00
71097;PMS7003;58754;47.622;-2.986;2023-06-10T14:14:53;0.75;0.75;0.75
71097;PMS7003;58754;47.622;-2.986;2023-06-10T14:17:19;1.75;1.00;1.00
71097;PMS7003;58754;47.622;-2.986;2023-06-10T14:19:45;1.00;1.00;1.00
71097;PMS7003;58754;47.622;-2.986;2023-06-10T14:22:11;1.00;1.00;1.00
71097;PMS7003;58754;47.622;-2.986;2023-06-10T14:24:36;2.00;0.75;0.75